createdAt,value
2022-11-16T00:02:15.767Z,5.60
2022-11-16T00:04:44.503Z,5.60
2022-11-16T00:07:13.292Z,5.60
2022-11-16T00:09:43.360Z,5.60
2022-11-16T00:12:12.929Z,5.60
2022-11-16T00:14:41.665Z,5.60
2022-11-16T00:17:10.308Z,5.70
2022-11-16T00:19:39.011Z,5.70
2022-11-16T00:22:07.630Z,5.70
2022-11-16T00:24:36.374Z,5.70
2022-11-16T00:27:06.548Z,5.70
2022-11-16T00:29:35.140Z,5.70
2022-11-16T00:32:03.821Z,5.70
2022-11-16T00:34:32.528Z,5.70
2022-11-16T00:37:01.178Z,5.70
2022-11-16T00:39:29.882Z,5.70
2022-11-16T00:41:58.502Z,5.80
2022-11-16T00:44:28.798Z,5.80
2022-11-16T00:46:57.506Z,5.80
2022-11-16T00:49:26.270Z,5.80
2022-11-16T00:51:54.949Z,5.80
2022-11-16T00:54:23.780Z,5.70
2022-11-16T00:56:52.413Z,5.70
2022-11-16T00:59:21.044Z,5.70
2022-11-16T01:01:51.112Z,5.70
2022-11-16T01:04:19.764Z,5.70
2022-11-16T01:06:48.505Z,5.70
2022-11-16T01:09:17.513Z,5.70
2022-11-16T01:12:03.724Z,5.80
2022-11-16T01:14:32.531Z,5.80
2022-11-16T01:17:02.723Z,5.70
2022-11-16T01:19:31.694Z,5.80
2022-11-16T01:22:01.140Z,5.80
2022-11-16T01:24:29.833Z,5.80
2022-11-16T01:26:58.831Z,5.80
2022-11-16T01:29:28.346Z,5.70
2022-11-16T01:31:57.590Z,5.70
2022-11-16T01:34:28.548Z,5.70
2022-11-16T01:36:57.288Z,5.70
2022-11-16T01:39:26.172Z,5.60
2022-11-16T01:41:55.310Z,5.70
2022-11-16T01:45:01.223Z,5.60
2022-11-16T01:47:31.288Z,5.60
2022-11-16T01:50:10.316Z,5.70
2022-11-16T01:52:43.250Z,5.70
2022-11-16T01:55:12.744Z,5.70
2022-11-16T01:57:45.602Z,5.70
2022-11-16T02:00:16.422Z,5.70
2022-11-16T02:02:45.318Z,5.70
2022-11-16T02:05:19.370Z,5.80
2022-11-16T02:08:30.356Z,5.70
2022-11-16T02:11:16.525Z,5.70
2022-11-16T02:13:59.800Z,5.80
2022-11-16T02:16:38.502Z,5.80
2022-11-16T02:19:24.214Z,5.80
2022-11-16T02:22:01.055Z,5.70
2022-11-16T02:24:46.070Z,5.70
2022-11-16T02:27:52.953Z,5.70
2022-11-16T02:30:24.038Z,5.70
2022-11-16T02:32:57.457Z,5.70
2022-11-16T02:35:30.726Z,5.70
2022-11-16T02:38:03.893Z,5.70
2022-11-16T02:40:34.653Z,5.70
2022-11-16T02:43:08.766Z,5.70
2022-11-16T02:45:44.157Z,5.70
2022-11-16T02:48:16.427Z,5.70
2022-11-16T02:50:46.727Z,5.70
2022-11-16T02:53:15.746Z,5.70
2022-11-16T02:55:44.599Z,5.70
2022-11-16T02:58:15.542Z,5.70
2022-11-16T03:00:50.189Z,5.70
2022-11-16T03:03:26.421Z,5.70
2022-11-16T03:06:00.291Z,5.60
2022-11-16T03:08:33.389Z,5.60
2022-11-16T03:11:22.501Z,5.70
2022-11-16T03:13:52.524Z,5.70
2022-11-16T03:16:27.212Z,5.60
2022-11-16T03:18:59.619Z,5.60
2022-11-16T03:21:34.524Z,5.60
2022-11-16T03:24:03.652Z,5.60
2022-11-16T03:26:37.962Z,5.60
2022-11-16T03:29:15.201Z,5.60
2022-11-16T03:31:50.424Z,5.60
2022-11-16T03:34:21.930Z,5.60
2022-11-16T03:36:54.451Z,5.60
2022-11-16T03:39:27.420Z,5.60
2022-11-16T03:41:58.605Z,5.60
2022-11-16T03:44:28.093Z,5.60
2022-11-16T03:46:58.297Z,5.70
2022-11-16T03:49:26.961Z,5.70
2022-11-16T03:51:56.044Z,5.70
2022-11-16T03:54:24.652Z,5.70
2022-11-16T03:56:53.210Z,5.70
2022-11-16T03:59:21.816Z,5.70
2022-11-16T04:01:50.440Z,5.70
2022-11-16T04:04:37.771Z,5.70
2022-11-16T04:07:23.983Z,5.70
2022-11-16T04:10:10.075Z,5.80
2022-11-16T04:12:56.713Z,5.80
2022-11-16T04:15:43.023Z,5.80
2022-11-16T04:18:29.077Z,5.80
2022-11-16T04:21:16.787Z,5.70
2022-11-16T04:24:02.872Z,5.70
2022-11-16T04:26:45.236Z,5.80
2022-11-16T04:29:15.478Z,5.80
2022-11-16T04:32:01.234Z,5.80
2022-11-16T04:34:47.389Z,5.80
2022-11-16T04:37:36.962Z,5.80
2022-11-16T04:40:06.286Z,5.80
2022-11-16T04:42:34.852Z,5.80
2022-11-16T04:45:21.100Z,5.80
2022-11-16T04:47:50.684Z,5.80
2022-11-16T04:50:19.822Z,5.80
2022-11-16T04:52:50.132Z,5.80
2022-11-16T04:55:18.833Z,5.80
2022-11-16T04:57:47.624Z,5.80
2022-11-16T05:00:17.235Z,5.80
2022-11-16T05:02:45.913Z,5.90
2022-11-16T05:05:15.223Z,6.00
2022-11-16T05:07:44.487Z,5.90
2022-11-16T05:10:15.136Z,5.90
2022-11-16T05:12:43.737Z,5.90
2022-11-16T05:15:12.631Z,5.90
2022-11-16T05:17:41.509Z,5.90
2022-11-16T05:20:29.172Z,5.90
2022-11-16T05:22:58.750Z,5.90
2022-11-16T05:25:32.632Z,5.90
2022-11-16T05:28:04.556Z,5.90
2022-11-16T05:30:33.165Z,5.90
2022-11-16T05:33:02.036Z,5.90
2022-11-16T05:35:30.681Z,5.80
2022-11-16T05:37:59.456Z,5.90
2022-11-16T05:40:29.529Z,5.80
2022-11-16T05:42:59.671Z,5.80
2022-11-16T05:45:28.350Z,5.80
2022-11-16T05:47:56.953Z,5.90
2022-11-16T05:50:25.528Z,5.90
2022-11-16T05:52:54.174Z,5.90
2022-11-16T05:55:22.880Z,5.90
2022-11-16T05:57:53.033Z,5.90
2022-11-16T06:00:22.297Z,5.90
2022-11-16T06:02:51.256Z,5.90
2022-11-16T06:05:19.856Z,5.80
2022-11-16T06:07:48.607Z,5.80
2022-11-16T06:10:22.582Z,5.90
2022-11-16T06:12:52.658Z,5.80
2022-11-16T06:15:21.341Z,5.80
2022-11-16T06:17:50.219Z,5.80
2022-11-16T06:20:19.224Z,5.80
2022-11-16T06:22:48.486Z,5.80
2022-11-16T06:25:17.599Z,5.80
2022-11-16T06:27:46.369Z,5.90
2022-11-16T06:30:17.398Z,5.90
2022-11-16T06:32:46.271Z,5.90
2022-11-16T06:35:15.102Z,5.90
2022-11-16T06:37:43.900Z,5.90
2022-11-16T06:40:13.359Z,6.00
2022-11-16T06:42:42.354Z,5.90
2022-11-16T06:45:11.632Z,6.00
2022-11-16T06:47:42.356Z,6.00
2022-11-16T06:50:11.767Z,6.00
2022-11-16T06:52:40.465Z,6.00
2022-11-16T06:55:10.052Z,6.00
2022-11-16T06:57:38.820Z,6.00
2022-11-16T07:00:09.257Z,6.00
2022-11-16T07:02:39.292Z,6.00
2022-11-16T07:05:10.163Z,6.00
2022-11-16T07:07:39.078Z,6.00
2022-11-16T07:10:11.008Z,6.00
2022-11-16T07:12:39.894Z,6.00
2022-11-16T07:15:09.464Z,6.10
2022-11-16T07:17:38.186Z,6.10
2022-11-16T07:20:09.333Z,6.10
2022-11-16T07:22:38.232Z,6.10
2022-11-16T07:25:07.875Z,6.10
2022-11-16T07:27:36.637Z,6.00
2022-11-16T07:30:06.254Z,6.10
2022-11-16T07:32:35.170Z,6.10
2022-11-16T07:35:05.845Z,6.20
2022-11-16T07:37:36.052Z,6.20
2022-11-16T07:40:05.033Z,6.10
2022-11-16T07:42:33.704Z,6.10
2022-11-16T07:45:02.827Z,6.10
2022-11-16T07:47:36.294Z,6.20
2022-11-16T07:50:05.463Z,6.10
2022-11-16T07:52:35.586Z,6.20
2022-11-16T07:55:05.855Z,6.10
2022-11-16T07:57:34.655Z,6.20
2022-11-16T08:00:04.254Z,6.20
2022-11-16T08:02:33.218Z,6.20
2022-11-16T08:05:01.879Z,6.30
2022-11-16T08:07:30.581Z,6.30
2022-11-16T08:10:01.111Z,6.40
2022-11-16T08:12:29.824Z,6.50
2022-11-16T08:14:58.697Z,6.50
2022-11-16T08:17:27.405Z,6.50
2022-11-16T08:19:56.306Z,6.50
2022-11-16T08:22:25.061Z,6.60
2022-11-16T08:24:53.666Z,6.60
2022-11-16T08:27:24.095Z,6.60
2022-11-16T08:29:53.225Z,6.60
2022-11-16T08:32:21.911Z,6.60
2022-11-16T08:34:50.587Z,6.60
2022-11-16T08:37:19.227Z,6.60
2022-11-16T08:39:48.233Z,6.50
2022-11-16T08:42:17.208Z,6.50
2022-11-16T08:44:47.593Z,6.50
2022-11-16T08:47:16.687Z,6.50
2022-11-16T08:49:49.562Z,6.50
2022-11-16T08:52:18.574Z,6.40
2022-11-16T08:54:47.393Z,6.40
2022-11-16T08:57:16.030Z,6.40
2022-11-16T08:59:45.076Z,6.30
2022-11-16T09:02:15.335Z,6.30
2022-11-16T09:04:47.326Z,6.30
2022-11-16T09:07:16.024Z,6.30
2022-11-16T09:09:44.672Z,6.30
2022-11-16T09:12:13.424Z,6.40
2022-11-16T09:14:42.048Z,6.50
2022-11-16T09:17:10.766Z,6.50
2022-11-16T09:19:40.847Z,6.40
2022-11-16T09:22:10.080Z,6.40
2022-11-16T09:24:38.754Z,6.40
2022-11-16T09:27:08.418Z,6.40
2022-11-16T09:29:37.022Z,6.40
2022-11-16T09:32:06.112Z,6.30
2022-11-16T09:34:36.360Z,6.30
2022-11-16T09:37:06.483Z,6.40
2022-11-16T09:39:35.085Z,6.50
2022-11-16T09:42:16.032Z,6.60
2022-11-16T09:45:00.142Z,6.70
2022-11-16T09:47:46.382Z,6.70
2022-11-16T09:50:28.469Z,6.80
2022-11-16T09:53:06.474Z,6.70
2022-11-16T09:55:40.678Z,6.70
2022-11-16T09:58:16.144Z,6.70
2022-11-16T10:00:51.046Z,6.70
2022-11-16T10:03:19.782Z,6.80
2022-11-16T10:05:58.824Z,6.90
2022-11-16T10:08:41.490Z,6.80
2022-11-16T10:11:29.341Z,6.80
2022-11-16T10:14:07.213Z,6.90
2022-11-16T10:16:42.879Z,7.00
2022-11-16T10:19:23.839Z,7.20
2022-11-16T10:22:00.045Z,7.30
2022-11-16T10:24:48.279Z,7.30
2022-11-16T10:27:34.688Z,7.30
2022-11-16T10:30:10.557Z,7.20
2022-11-16T10:32:45.998Z,7.20
2022-11-16T10:35:20.075Z,7.20
2022-11-16T10:37:51.542Z,7.20
2022-11-16T10:40:40.883Z,7.10
2022-11-16T10:43:15.229Z,7.20
2022-11-16T10:45:51.046Z,7.20
2022-11-16T10:48:30.489Z,7.20
2022-11-16T10:50:59.599Z,7.10
2022-11-16T10:53:30.362Z,7.00
2022-11-16T10:56:15.088Z,6.90
2022-11-16T10:58:55.376Z,6.80
2022-11-16T11:01:36.446Z,6.70
2022-11-16T11:04:23.748Z,6.60
2022-11-16T11:06:54.842Z,6.60
2022-11-16T11:09:32.744Z,6.60
2022-11-16T11:12:31.794Z,6.60
2022-11-16T11:15:04.362Z,6.60
2022-11-16T11:17:34.618Z,6.70
2022-11-16T11:20:05.792Z,6.70
2022-11-16T11:22:36.641Z,6.70
2022-11-16T11:25:20.352Z,6.80
2022-11-16T11:27:52.308Z,6.80
2022-11-16T11:30:22.705Z,6.90
2022-11-16T11:32:53.161Z,6.90
2022-11-16T11:35:26.215Z,7.00
2022-11-16T11:37:58.085Z,7.00
2022-11-16T11:40:28.610Z,7.00
2022-11-16T11:43:02.356Z,7.10
2022-11-16T11:45:39.060Z,7.00
2022-11-16T11:48:26.004Z,7.00
2022-11-16T11:50:56.498Z,7.00
2022-11-16T11:53:42.286Z,6.80
2022-11-16T11:56:13.992Z,6.80
2022-11-16T11:58:45.076Z,6.70
2022-11-16T12:01:47.059Z,6.50
2022-11-16T12:04:49.852Z,6.40
2022-11-16T12:07:30.774Z,6.40
2022-11-16T12:10:06.444Z,6.20
2022-11-16T12:12:47.848Z,5.80
2022-11-16T12:15:45.011Z,5.60
2022-11-16T12:18:25.420Z,5.30
2022-11-16T12:21:01.369Z,5.20
2022-11-16T12:24:00.641Z,5.10
2022-11-16T12:26:41.426Z,5.00
2022-11-16T12:29:25.741Z,4.90
2022-11-16T12:32:22.148Z,4.80
2022-11-16T12:35:10.681Z,4.80
2022-11-16T12:37:49.962Z,4.60
2022-11-16T12:40:31.613Z,4.50
2022-11-16T12:43:05.764Z,4.40
2022-11-16T12:45:58.816Z,4.40
2022-11-16T12:48:42.076Z,4.30
2022-11-16T12:51:25.230Z,4.30
2022-11-16T12:54:27.680Z,4.20
2022-11-16T12:57:04.489Z,4.20
2022-11-16T12:59:56.715Z,4.20
2022-11-16T13:02:42.972Z,4.10
2022-11-16T13:05:19.788Z,4.10
2022-11-16T13:07:51.751Z,4.10
2022-11-16T13:10:24.319Z,4.10
2022-11-16T13:13:21.987Z,4.10
2022-11-16T13:15:48.161Z,4.00
2022-11-16T13:18:21.220Z,4.00
2022-11-16T13:20:57.741Z,3.90
2022-11-16T13:23:38.813Z,3.90
2022-11-16T13:26:14.539Z,3.90
2022-11-16T13:28:50.094Z,3.80
2022-11-16T13:31:22.993Z,3.70
2022-11-16T13:33:57.412Z,3.70
2022-11-16T13:36:48.290Z,3.60
2022-11-16T13:39:22.530Z,3.60
2022-11-16T13:41:53.336Z,3.60
2022-11-16T13:44:30.037Z,3.60
2022-11-16T13:47:04.872Z,3.60
2022-11-16T13:49:38.073Z,3.60
2022-11-16T13:52:23.102Z,3.50
2022-11-16T13:54:55.682Z,3.50
2022-11-16T13:57:27.396Z,3.40
2022-11-16T14:00:13.695Z,3.50
2022-11-16T14:02:43.629Z,3.50
2022-11-16T14:05:38.931Z,3.40
2022-11-16T14:08:40.937Z,3.30
2022-11-16T14:11:32.160Z,3.30
2022-11-16T14:14:02.734Z,3.20
2022-11-16T14:16:55.527Z,3.20
2022-11-16T14:19:55.131Z,3.00
2022-11-16T14:22:46.716Z,3.00
2022-11-16T14:25:33.836Z,3.00
2022-11-16T14:28:26.562Z,3.00
2022-11-16T14:31:08.575Z,3.00
2022-11-16T14:33:39.093Z,3.00
2022-11-16T14:36:10.837Z,3.00
2022-11-16T14:38:41.708Z,3.10
2022-11-16T14:41:21.438Z,3.10
2022-11-16T14:43:53.553Z,3.10
2022-11-16T14:46:26.310Z,3.10
2022-11-16T14:48:57.982Z,3.10
2022-11-16T14:51:30.766Z,3.20
2022-11-16T14:54:03.216Z,3.20
2022-11-16T14:56:31.909Z,3.20
2022-11-16T14:59:04.538Z,3.20
2022-11-16T15:01:37.037Z,3.20
2022-11-16T15:04:08.396Z,3.20
2022-11-16T15:06:42.301Z,3.20
2022-11-16T15:09:20.715Z,3.20
2022-11-16T15:12:08.472Z,3.20
2022-11-16T15:14:43.216Z,3.20
2022-11-16T15:17:18.315Z,3.20
2022-11-16T15:19:56.616Z,3.20
2022-11-16T15:22:29.983Z,3.20
2022-11-16T15:24:59.950Z,3.20
2022-11-16T15:27:39.347Z,3.30
2022-11-16T15:30:18.673Z,3.30
2022-11-16T15:32:49.679Z,3.30
2022-11-16T15:35:23.087Z,3.30
2022-11-16T15:38:02.997Z,3.30
2022-11-16T15:40:31.996Z,3.30
2022-11-16T15:43:03.023Z,3.30
2022-11-16T15:45:34.029Z,3.40
2022-11-16T15:48:04.474Z,3.40
2022-11-16T15:50:33.515Z,3.40
2022-11-16T15:53:02.191Z,3.40
2022-11-16T15:55:35.539Z,3.40
2022-11-16T15:58:07.811Z,3.50
2022-11-16T16:00:39.328Z,3.50
2022-11-16T16:03:18.535Z,3.50
2022-11-16T16:05:47.292Z,3.50
2022-11-16T16:08:32.433Z,3.40
2022-11-16T16:11:21.405Z,3.50
2022-11-16T16:14:00.138Z,3.40
2022-11-16T16:16:32.437Z,3.50
2022-11-16T16:19:10.461Z,3.50
2022-11-16T16:21:45.756Z,3.50
2022-11-16T16:24:36.523Z,3.50
2022-11-16T16:27:15.504Z,3.50
2022-11-16T16:29:44.905Z,3.50
2022-11-16T16:32:24.671Z,3.50
2022-11-16T16:34:53.807Z,3.50
2022-11-16T16:37:22.778Z,3.60
2022-11-16T16:39:51.488Z,3.60
2022-11-16T16:42:21.719Z,3.70
2022-11-16T16:44:53.440Z,3.70
2022-11-16T16:47:23.625Z,3.70
2022-11-16T16:49:52.537Z,3.60
2022-11-16T16:52:21.681Z,3.70
2022-11-16T16:54:58.687Z,3.70
2022-11-16T16:57:27.684Z,3.70
2022-11-16T16:59:56.718Z,3.70
2022-11-16T17:02:28.897Z,3.70
2022-11-16T17:05:02.919Z,3.60
2022-11-16T17:07:31.932Z,3.70
2022-11-16T17:10:00.834Z,3.80
2022-11-16T17:12:29.661Z,3.80
2022-11-16T17:14:58.570Z,3.80
2022-11-16T17:17:28.779Z,3.80
2022-11-16T17:19:57.479Z,3.80
2022-11-16T17:22:26.397Z,3.80
2022-11-16T17:24:55.367Z,3.80
2022-11-16T17:27:24.137Z,3.80
2022-11-16T17:29:52.822Z,3.80
2022-11-16T17:32:21.711Z,3.80
2022-11-16T17:34:51.727Z,3.80
2022-11-16T17:37:20.670Z,3.80
2022-11-16T17:39:49.606Z,3.80
2022-11-16T17:42:18.385Z,3.80
2022-11-16T17:44:46.963Z,3.80
2022-11-16T17:47:15.611Z,3.70
2022-11-16T17:49:44.364Z,3.70
2022-11-16T17:52:14.748Z,3.80
2022-11-16T17:54:43.338Z,3.80
2022-11-16T17:57:12.996Z,3.80
2022-11-16T17:59:41.768Z,3.80
2022-11-16T18:02:12.509Z,3.80
2022-11-16T18:04:41.110Z,3.70
2022-11-16T18:07:10.067Z,3.70
2022-11-16T18:09:40.318Z,3.60
2022-11-16T18:12:09.154Z,3.50
2022-11-16T18:14:37.991Z,3.60
2022-11-16T18:17:06.612Z,3.60
2022-11-16T18:19:35.485Z,3.60
2022-11-16T18:22:04.238Z,3.60
2022-11-16T18:24:33.267Z,3.50
2022-11-16T18:27:03.773Z,3.50
2022-11-16T18:29:32.590Z,3.50
2022-11-16T18:32:01.600Z,3.60
2022-11-16T18:34:30.749Z,3.60
2022-11-16T18:36:59.507Z,3.60
2022-11-16T18:39:28.210Z,3.60
2022-11-16T18:41:56.799Z,3.60
2022-11-16T18:44:27.021Z,3.60
2022-11-16T18:46:56.856Z,3.60
2022-11-16T18:49:25.780Z,3.70
2022-11-16T18:51:54.440Z,3.70
2022-11-16T18:54:23.190Z,3.70
2022-11-16T18:56:51.842Z,3.70
2022-11-16T18:59:20.557Z,3.70
2022-11-16T19:01:50.556Z,3.70
2022-11-16T19:04:19.215Z,3.70
2022-11-16T19:06:47.918Z,3.70
2022-11-16T19:09:16.538Z,3.70
2022-11-16T19:11:45.412Z,3.70
2022-11-16T19:14:14.172Z,3.70
2022-11-16T19:16:52.481Z,3.70
2022-11-16T19:19:24.672Z,3.70
2022-11-16T19:21:53.322Z,3.70
2022-11-16T19:24:22.291Z,3.70
2022-11-16T19:26:55.321Z,3.70
2022-11-16T19:29:23.972Z,3.70
2022-11-16T19:31:54.445Z,3.70
2022-11-16T19:34:31.976Z,3.70
2022-11-16T19:37:02.169Z,3.70
2022-11-16T19:39:31.347Z,3.70
2022-11-16T19:42:00.253Z,3.70
2022-11-16T19:44:31.043Z,3.70
2022-11-16T19:47:01.593Z,3.70
2022-11-16T19:49:44.614Z,3.70
2022-11-16T19:52:13.796Z,3.70
2022-11-16T19:54:42.525Z,3.70
2022-11-16T19:57:11.810Z,3.70
2022-11-16T19:59:40.873Z,3.70
2022-11-16T20:02:13.350Z,3.70
2022-11-16T20:04:44.430Z,3.80
2022-11-16T20:07:13.691Z,3.80
2022-11-16T20:09:42.501Z,3.80
2022-11-16T20:12:11.168Z,3.70
2022-11-16T20:14:39.930Z,3.80
2022-11-16T20:17:08.705Z,3.80
2022-11-16T20:19:37.324Z,3.70
2022-11-16T20:22:11.157Z,3.70
2022-11-16T20:24:39.825Z,3.70
2022-11-16T20:27:08.783Z,3.70
2022-11-16T20:29:37.572Z,3.70
2022-11-16T20:32:06.406Z,3.90
2022-11-16T20:34:35.574Z,3.90
2022-11-16T20:37:04.491Z,3.90
2022-11-16T20:39:37.694Z,3.90
2022-11-16T20:42:06.447Z,3.90
2022-11-16T20:44:37.336Z,3.90
2022-11-16T20:47:07.826Z,3.90
2022-11-16T20:49:36.510Z,3.90
2022-11-16T20:52:05.258Z,3.80
2022-11-16T20:54:35.924Z,3.90
2022-11-16T20:57:04.920Z,3.90
2022-11-16T20:59:34.679Z,3.90
2022-11-16T21:02:03.913Z,3.90
2022-11-16T21:04:34.515Z,3.90
2022-11-16T21:07:03.246Z,3.90
2022-11-16T21:09:51.967Z,3.90
2022-11-16T21:12:44.075Z,3.90
2022-11-16T21:15:15.514Z,3.90
2022-11-16T21:17:47.424Z,3.90
2022-11-16T21:20:32.520Z,3.90
2022-11-16T21:23:03.259Z,3.90
2022-11-16T21:25:34.314Z,3.90
2022-11-16T21:28:09.195Z,4.00
2022-11-16T21:30:39.426Z,3.90
2022-11-16T21:33:10.350Z,3.90
2022-11-16T21:35:42.987Z,3.80
2022-11-16T21:38:11.637Z,3.90
2022-11-16T21:40:40.340Z,3.90
2022-11-16T21:43:11.158Z,4.00
2022-11-16T21:45:39.801Z,3.90
2022-11-16T21:48:09.954Z,3.90
2022-11-16T21:50:41.952Z,4.00
2022-11-16T21:53:15.412Z,3.90
2022-11-16T21:55:52.984Z,3.90
2022-11-16T21:58:23.839Z,3.90
2022-11-16T22:00:55.617Z,3.80
2022-11-16T22:03:28.589Z,3.90
2022-11-16T22:06:17.599Z,3.90
2022-11-16T22:08:48.822Z,3.90
2022-11-16T22:14:09.833Z,3.90
2022-11-16T22:16:40.272Z,3.90
2022-11-16T22:19:09.122Z,3.90
2022-11-16T22:21:37.750Z,3.80
2022-11-16T22:24:06.797Z,3.90
2022-11-16T22:26:35.623Z,3.90
2022-11-16T22:29:05.307Z,3.90
2022-11-16T22:31:36.303Z,3.90
2022-11-16T22:34:07.681Z,3.90
2022-11-16T22:36:36.607Z,3.90
2022-11-16T22:39:05.533Z,3.90
2022-11-16T22:41:34.190Z,3.90
2022-11-16T22:44:04.632Z,3.90
2022-11-16T22:46:37.622Z,3.90
2022-11-16T22:49:07.810Z,3.90
2022-11-16T22:51:36.454Z,3.90
2022-11-16T22:54:07.381Z,3.80
2022-11-16T22:56:36.628Z,3.90
2022-11-16T22:59:06.085Z,3.90
2022-11-16T23:01:38.085Z,3.80
2022-11-16T23:04:07.223Z,3.80
2022-11-16T23:06:35.857Z,3.80
2022-11-16T23:09:04.714Z,3.80
2022-11-16T23:11:51.230Z,3.70
2022-11-16T23:14:37.363Z,3.70
2022-11-16T23:17:08.198Z,3.70
2022-11-16T23:19:56.145Z,3.70
2022-11-16T23:22:44.935Z,3.70
2022-11-16T23:25:34.878Z,3.60
2022-11-16T23:28:08.537Z,3.60
2022-11-16T23:30:38.135Z,3.70
2022-11-16T23:33:10.485Z,3.60
2022-11-16T23:35:42.230Z,3.60
2022-11-16T23:38:12.588Z,3.60
2022-11-16T23:40:44.567Z,3.50
2022-11-16T23:43:34.116Z,3.50
2022-11-16T23:46:02.999Z,3.50
2022-11-16T23:48:36.384Z,3.50
2022-11-16T23:51:05.715Z,3.50
2022-11-16T23:53:37.226Z,3.50
2022-11-16T23:56:07.069Z,3.50
2022-11-16T23:58:35.694Z,3.50
